Time;durP1;ratioP1;P1;durP2;ratioP2;P2;SDS_P1;SDS_P2;PMS_P1;PMS_P2;Temp;Humidity;BMP_temperature;BMP_pressure;BME280_temperature;BME280_humidity;BME280_pressure;Samples;Min_cycle;Max_cycle;Signal;HPM_P1;HPM_P2
2024/01/21 00:01:25;;;;;;;15.90;8.80;;;0.90;70.60;;;;;;5030966;28;20053;-82
2024/01/21 00:03:50;;;;;;;12.40;7.77;;;0.80;70.10;;;;;;5034041;28;20185;-82
2024/01/21 00:06:19;;;;;;;10.20;7.57;;;0.80;69.70;;;;;;5032566;28;20044;-82
2024/01/21 00:08:49;;;;;;;10.27;7.20;;;0.80;69.50;;;;;;5033430;28;20033;-82
2024/01/21 00:11:14;;;;;;;14.20;8.43;;;0.80;68.60;;;;;;5032287;28;21779;-82
2024/01/21 00:13:40;;;;;;;12.97;7.37;;;0.80;68.90;;;;;;5035015;28;20041;-83
2024/01/21 00:16:06;;;;;;;12.93;7.70;;;0.80;68.80;;;;;;5015113;28;20037;-83
2024/01/21 00:18:34;;;;;;;14.70;9.23;;;0.80;68.50;;;;;;5035131;28;20025;-82
2024/01/21 00:20:59;;;;;;;14.20;8.30;;;0.80;67.90;;;;;;5029434;28;20037;-82
2024/01/21 00:23:25;;;;;;;13.20;8.07;;;0.80;68.30;;;;;;5032195;28;20045;-82
2024/01/21 00:25:51;;;;;;;13.03;8.20;;;0.80;68.50;;;;;;5035405;28;20053;-83
2024/01/21 00:28:20;;;;;;;12.40;7.77;;;0.80;67.30;;;;;;5037281;28;20041;-82
2024/01/21 00:30:46;;;;;;;14.40;8.23;;;0.80;67.50;;;;;;5026733;28;20064;-85
2024/01/21 00:33:12;;;;;;;13.03;8.20;;;0.80;67.10;;;;;;5029358;28;20037;-85
2024/01/21 00:35:38;;;;;;;12.10;7.73;;;0.80;66.80;;;;;;5028717;28;20045;-83
2024/01/21 00:38:03;;;;;;;12.70;8.13;;;0.80;66.80;;;;;;5024122;28;20498;-85
2024/01/21 00:40:29;;;;;;;13.37;8.23;;;0.80;66.80;;;;;;5023920;28;20574;-85
2024/01/21 00:42:59;;;;;;;14.97;8.80;;;0.80;66.70;;;;;;5027391;28;20049;-83
2024/01/21 00:45:25;;;;;;;14.83;8.27;;;0.80;66.50;;;;;;5028774;28;20510;-86
2024/01/21 00:47:51;;;;;;;13.87;8.57;;;0.80;66.70;;;;;;5028523;28;20488;-85
2024/01/21 00:50:16;;;;;;;14.17;8.30;;;0.80;66.80;;;;;;5009951;28;20124;-85
2024/01/21 00:52:42;;;;;;;13.73;8.07;;;0.80;66.60;;;;;;5013166;28;20033;-85
2024/01/21 00:55:08;;;;;;;12.10;7.70;;;1.10;66.00;;;;;;5029478;28;20029;-85
2024/01/21 00:57:33;;;;;;;10.90;6.80;;;0.80;66.00;;;;;;5013373;28;20060;-85
2024/01/21 00:59:59;;;;;;;11.97;7.83;;;0.80;66.10;;;;;;5028875;28;20051;-86
2024/01/21 01:02:25;;;;;;;15.43;9.13;;;0.80;66.00;;;;;;5011815;28;20037;-85
2024/01/21 01:04:51;;;;;;;13.10;8.47;;;0.80;65.50;;;;;;5028842;28;20060;-85
2024/01/21 01:07:17;;;;;;;14.20;8.07;;;0.80;65.40;;;;;;5027910;28;20049;-85
2024/01/21 01:09:42;;;;;;;11.90;7.50;;;0.80;65.30;;;;;;5028997;28;20125;-84
2024/01/21 01:12:08;;;;;;;13.70;8.10;;;0.90;65.30;;;;;;5032666;28;20042;-84
2024/01/21 01:14:34;;;;;;;14.10;8.33;;;0.90;65.30;;;;;;5031083;28;20472;-85
2024/01/21 01:16:59;;;;;;;14.97;8.57;;;0.90;65.10;;;;;;5026813;28;20112;-85
2024/01/21 01:19:25;;;;;;;12.13;7.23;;;0.90;64.90;;;;;;5028891;28;20052;-85
2024/01/21 01:21:51;;;;;;;12.77;8.03;;;0.90;65.00;;;;;;5030269;28;20053;-85
2024/01/21 01:24:17;;;;;;;14.80;8.57;;;0.90;64.60;;;;;;5033726;28;20053;-84
2024/01/21 01:26:42;;;;;;;12.87;7.97;;;0.90;64.60;;;;;;5015117;28;20124;-84
2024/01/21 01:29:08;;;;;;;11.20;7.47;;;0.90;64.80;;;;;;5027844;28;20037;-85
2024/01/21 01:31:33;;;;;;;11.63;7.20;;;0.90;64.90;;;;;;5026687;28;20120;-85
2024/01/21 01:33:59;;;;;;;13.80;7.63;;;1.00;65.00;;;;;;5027184;28;20111;-85
2024/01/21 01:36:25;;;;;;;12.93;7.67;;;0.90;64.70;;;;;;5030412;28;20037;-85
2024/01/21 01:38:50;;;;;;;11.80;7.60;;;0.90;64.70;;;;;;5029220;28;20041;-86
2024/01/21 01:41:16;;;;;;;11.60;7.60;;;0.90;64.60;;;;;;5029491;28;20065;-85
2024/01/21 01:43:42;;;;;;;11.30;7.27;;;0.90;64.60;;;;;;5024920;28;20049;-85
2024/01/21 01:46:08;;;;;;;12.43;7.17;;;1.00;64.70;;;;;;5034007;28;20052;-85
2024/01/21 01:48:34;;;;;;;13.20;7.87;;;0.90;64.60;;;;;;5041339;28;20048;-84
2024/01/21 01:51:03;;;;;;;10.33;7.00;;;1.00;64.40;;;;;;5021029;28;20097;-84
2024/01/21 01:53:31;;;;;;;11.60;6.73;;;1.00;64.30;;;;;;5031919;28;20047;-85
2024/01/21 01:55:57;;;;;;;12.30;7.67;;;1.00;64.00;;;;;;5026984;28;20033;-80
2024/01/21 01:58:26;;;;;;;11.70;7.70;;;1.00;64.10;;;;;;5029661;28;20043;-80
2024/01/21 02:00:53;;;;;;;9.50;6.37;;;1.00;64.20;;;;;;5034324;28;20091;-80
2024/01/21 02:03:18;;;;;;;10.83;6.50;;;1.00;64.10;;;;;;5028295;28;20037;-80
2024/01/21 02:05:45;;;;;;;13.63;6.97;;;1.00;64.30;;;;;;5032996;28;20029;-80
2024/01/21 02:08:11;;;;;;;10.07;6.63;;;1.00;63.90;;;;;;5029212;28;20470;-81
2024/01/21 02:10:37;;;;;;;10.10;6.37;;;1.00;64.00;;;;;;5030535;28;20052;-80
2024/01/21 02:13:02;;;;;;;10.67;6.83;;;1.00;64.30;;;;;;5033004;28;20041;-80
2024/01/21 02:15:28;;;;;;;10.83;6.37;;;1.00;63.40;;;;;;5034637;28;20116;-80
2024/01/21 02:17:55;;;;;;;9.77;6.57;;;1.00;63.40;;;;;;5034240;28;20091;-80
2024/01/21 02:20:20;;;;;;;9.60;5.90;;;1.00;63.60;;;;;;5030446;28;20087;-80
2024/01/21 02:22:47;;;;;;;10.27;5.97;;;1.00;63.30;;;;;;5034582;28;20064;-80
2024/01/21 02:25:12;;;;;;;11.37;6.87;;;1.10;63.20;;;;;;5034343;28;20132;-80
2024/01/21 02:27:38;;;;;;;9.63;5.93;;;1.10;62.80;;;;;;5033964;28;20689;-82
2024/01/21 02:30:06;;;;;;;9.20;5.83;;;1.10;62.80;;;;;;5035725;28;20128;-83
2024/01/21 02:32:31;;;;;;;10.13;5.77;;;1.10;62.40;;;;;;5018526;28;20403;-83
2024/01/21 02:34:57;;;;;;;7.90;5.20;;;1.10;62.40;;;;;;5025375;28;20045;-83
2024/01/21 02:37:23;;;;;;;11.00;5.47;;;1.10;62.20;;;;;;5059788;28;20039;-83
2024/01/21 02:39:48;;;;;;;9.00;4.87;;;1.20;62.00;;;;;;5039645;28;20073;-83
2024/01/21 02:42:14;;;;;;;8.23;4.97;;;1.20;61.60;;;;;;5032417;28;20033;-83
2024/01/21 02:44:39;;;;;;;8.17;4.53;;;1.20;60.80;;;;;;5049585;28;20037;-83
2024/01/21 02:47:05;;;;;;;8.03;4.50;;;1.20;60.40;;;;;;5039437;28;20121;-83
2024/01/21 02:49:31;;;;;;;7.63;4.70;;;1.30;60.40;;;;;;5023905;28;20049;-83
2024/01/21 02:51:58;;;;;;;8.27;4.80;;;1.30;60.60;;;;;;5017911;28;20481;-83
2024/01/21 02:54:25;;;;;;;7.20;4.30;;;1.30;59.70;;;;;;5016032;28;20443;-83
2024/01/21 02:56:51;;;;;;;7.43;4.17;;;1.30;59.40;;;;;;5033692;28;20033;-83
2024/01/21 02:59:16;;;;;;;10.83;4.33;;;1.40;59.90;;;;;;5035907;28;20056;-83
2024/01/21 03:01:42;;;;;;;7.73;4.47;;;1.40;58.60;;;;;;5037790;28;20045;-83
2024/01/21 03:04:12;;;;;;;5.80;3.97;;;1.40;58.60;;;;;;5019758;28;20038;-83
2024/01/21 03:06:38;;;;;;;8.00;4.40;;;1.50;58.40;;;;;;5034454;28;20044;-83
2024/01/21 03:09:05;;;;;;;6.33;4.40;;;1.50;58.40;;;;;;5015118;28;20167;-83
2024/01/21 03:11:36;;;;;;;6.10;3.67;;;1.50;58.60;;;;;;5034778;28;20050;-83
2024/01/21 03:14:01;;;;;;;9.13;4.10;;;2.00;58.30;;;;;;5037076;28;20439;-82
2024/01/21 03:16:27;;;;;;;7.17;3.87;;;1.50;58.00;;;;;;5039022;28;21491;-83
2024/01/21 03:18:52;;;;;;;5.60;4.00;;;1.50;57.80;;;;;;5028859;28;20068;-82
2024/01/21 03:21:18;;;;;;;5.83;4.10;;;1.60;57.80;;;;;;5033390;28;20479;-82
2024/01/21 03:23:44;;;;;;;6.87;4.00;;;1.60;57.70;;;;;;5018235;28;20048;-82
2024/01/21 03:26:09;;;;;;;7.07;4.07;;;1.60;57.60;;;;;;5029912;28;20049;-82
2024/01/21 03:28:35;;;;;;;6.53;4.10;;;1.60;57.60;;;;;;5030942;28;20501;-82
2024/01/21 03:31:01;;;;;;;6.43;4.07;;;1.60;57.30;;;;;;5034317;28;20112;-82
2024/01/21 03:33:29;;;;;;;4.90;3.20;;;1.70;57.00;;;;;;5030016;28;20045;-82
2024/01/21 03:35:55;;;;;;;6.83;4.10;;;1.70;57.30;;;;;;5034954;28;20051;-82
2024/01/21 03:38:21;;;;;;;7.93;4.03;;;1.70;57.20;;;;;;5013221;28;20528;-82
2024/01/21 03:40:47;;;;;;;5.37;3.60;;;1.70;57.50;;;;;;5017109;28;20104;-82
2024/01/21 03:43:17;;;;;;;7.10;4.00;;;1.60;57.50;;;;;;5029471;28;20041;-82
2024/01/21 03:45:43;;;;;;;5.70;3.30;;;1.60;57.60;;;;;;5018792;28;20043;-82
2024/01/21 03:48:09;;;;;;;5.57;3.40;;;1.60;57.70;;;;;;5013266;28;20041;-82
2024/01/21 03:50:34;;;;;;;8.97;3.97;;;1.60;57.80;;;;;;5033142;28;20052;-82
2024/01/21 03:53:00;;;;;;;6.33;4.13;;;1.60;57.90;;;;;;5033038;28;20036;-82
2024/01/21 03:55:26;;;;;;;5.43;3.70;;;1.60;57.90;;;;;;5034284;28;20113;-82
2024/01/21 03:57:51;;;;;;;6.77;3.87;;;1.60;57.70;;;;;;5033694;28;20036;-82
2024/01/21 04:00:17;;;;;;;5.97;3.50;;;1.60;57.20;;;;;;5019029;28;20485;-82
2024/01/21 04:02:43;;;;;;;6.27;3.43;;;1.60;56.90;;;;;;5032831;28;20038;-82
2024/01/21 04:05:08;;;;;;;4.87;2.70;;;1.60;56.50;;;;;;5033458;28;20046;-82
2024/01/21 04:07:34;;;;;;;5.93;3.30;;;1.60;56.80;;;;;;5016729;28;20046;-82
2024/01/21 04:10:00;;;;;;;6.00;3.43;;;1.60;57.20;;;;;;5033154;28;20088;-82
2024/01/21 04:12:26;;;;;;;5.43;3.10;;;1.60;57.00;;;;;;5037619;28;20034;-82
2024/01/21 04:14:53;;;;;;;5.30;3.23;;;1.60;56.80;;;;;;5020072;28;20142;-83
2024/01/21 04:17:21;;;;;;;6.53;3.43;;;1.60;56.70;;;;;;5037714;28;20041;-83
2024/01/21 04:19:46;;;;;;;4.60;2.80;;;1.60;56.20;;;;;;5018807;28;20048;-82
2024/01/21 04:22:12;;;;;;;5.47;3.27;;;1.60;56.00;;;;;;5034583;28;20041;-82
2024/01/21 04:24:38;;;;;;;7.33;3.70;;;1.60;56.10;;;;;;5041764;28;20056;-82
2024/01/21 04:27:04;;;;;;;6.30;3.40;;;1.60;55.90;;;;;;5056438;28;20030;-82
2024/01/21 04:29:29;;;;;;;7.70;3.60;;;1.60;55.80;;;;;;5041291;28;20400;-83
2024/01/21 04:31:55;;;;;;;7.33;3.00;;;1.60;55.80;;;;;;5027843;28;20463;-82
2024/01/21 04:34:21;;;;;;;6.93;2.93;;;1.60;56.00;;;;;;5033899;28;20042;-82
2024/01/21 04:36:48;;;;;;;5.07;3.27;;;1.60;56.40;;;;;;5032734;28;20038;-82
2024/01/21 04:39:17;;;;;;;5.73;3.63;;;1.60;55.20;;;;;;5038568;28;20457;-83
2024/01/21 04:41:42;;;;;;;6.50;2.97;;;1.60;54.80;;;;;;5033950;28;20047;-83
2024/01/21 04:44:08;;;;;;;5.37;2.70;;;1.60;54.80;;;;;;5018006;28;20037;-83
2024/01/21 04:46:34;;;;;;;6.50;3.10;;;1.60;55.50;;;;;;5030344;28;20073;-83
2024/01/21 04:49:00;;;;;;;5.03;2.80;;;1.60;55.20;;;;;;5030420;28;20068;-83
2024/01/21 04:51:25;;;;;;;6.43;3.47;;;1.70;54.80;;;;;;5031913;28;20033;-82
2024/01/21 04:53:51;;;;;;;5.00;3.33;;;1.60;54.90;;;;;;5029697;28;20033;-82
2024/01/21 04:56:18;;;;;;;5.70;3.73;;;1.60;54.80;;;;;;5010040;28;20061;-82
2024/01/21 04:58:44;;;;;;;5.43;3.10;;;1.60;54.50;;;;;;5012596;28;20114;-82
2024/01/21 05:01:10;;;;;;;5.37;2.93;;;1.60;54.70;;;;;;5018526;28;20512;-82
2024/01/21 05:03:35;;;;;;;5.07;2.93;;;1.60;54.80;;;;;;5031652;28;20083;-82
2024/01/21 05:06:04;;;;;;;5.87;2.73;;;1.60;54.80;;;;;;5028740;28;20113;-82
2024/01/21 05:08:30;;;;;;;5.47;2.70;;;1.60;54.70;;;;;;5031288;28;20392;-82
2024/01/21 05:11:00;;;;;;;6.57;2.97;;;1.60;54.50;;;;;;5011806;28;20033;-82
2024/01/21 05:13:26;;;;;;;5.20;2.93;;;1.60;54.70;;;;;;5033820;28;20046;-82
2024/01/21 05:15:52;;;;;;;6.03;3.00;;;1.60;55.00;;;;;;5034828;28;20124;-82
2024/01/21 05:18:20;;;;;;;7.37;3.27;;;1.60;55.00;;;;;;5034008;28;20051;-82
2024/01/21 05:20:47;;;;;;;5.37;3.30;;;1.60;55.10;;;;;;5029494;28;20117;-82
2024/01/21 05:23:12;;;;;;;5.97;3.17;;;1.60;54.80;;;;;;5032276;28;20390;-82
2024/01/21 05:25:38;;;;;;;5.00;2.87;;;1.60;55.00;;;;;;5029643;28;20053;-82
2024/01/21 05:28:04;;;;;;;7.23;3.30;;;1.60;55.30;;;;;;5044152;28;20048;-83
2024/01/21 05:30:29;;;;;;;4.57;2.93;;;1.60;55.30;;;;;;5029640;28;20080;-82
2024/01/21 05:32:55;;;;;;;6.13;3.23;;;1.60;55.60;;;;;;5033604;28;20041;-81
2024/01/21 05:35:22;;;;;;;6.50;3.23;;;1.60;55.50;;;;;;5026436;28;20453;-80
2024/01/21 05:37:48;;;;;;;7.50;4.00;;;1.60;55.40;;;;;;5033635;28;20041;-80
2024/01/21 05:40:14;;;;;;;6.87;4.03;;;1.60;55.40;;;;;;5029386;28;20120;-80
2024/01/21 05:42:40;;;;;;;6.90;3.50;;;2.10;55.00;;;;;;5037200;28;20037;-80
2024/01/21 05:45:07;;;;;;;5.47;3.33;;;1.60;55.20;;;;;;5011770;28;20047;-82
2024/01/21 05:47:32;;;;;;;6.33;3.30;;;1.60;55.60;;;;;;5031390;28;20056;-82
2024/01/21 05:49:58;;;;;;;6.57;3.90;;;1.60;55.50;;;;;;5031515;28;20042;-82
2024/01/21 05:52:23;;;;;;;5.57;3.20;;;1.60;55.30;;;;;;5033981;28;20045;-82
2024/01/21 05:54:49;;;;;;;5.40;3.50;;;1.60;55.30;;;;;;5030967;28;20034;-82
2024/01/21 05:57:15;;;;;;;6.63;3.53;;;1.60;55.50;;;;;;5037369;28;20029;-82
2024/01/21 05:59:41;;;;;;;6.00;3.53;;;1.60;55.70;;;;;;5028188;28;20515;-82
2024/01/21 06:02:10;;;;;;;6.50;3.90;;;1.60;55.60;;;;;;5034050;28;20037;-82
2024/01/21 06:04:36;;;;;;;6.33;3.40;;;1.70;55.70;;;;;;5017896;28;20076;-82
2024/01/21 06:07:02;;;;;;;7.97;3.43;;;1.70;56.00;;;;;;5028158;28;20045;-83
2024/01/21 06:09:27;;;;;;;7.23;3.90;;;1.60;56.10;;;;;;5024860;28;20125;-82
2024/01/21 06:11:53;;;;;;;6.67;4.00;;;1.70;56.10;;;;;;5031511;28;20034;-82
2024/01/21 06:14:19;;;;;;;6.93;3.70;;;1.70;55.90;;;;;;5055937;28;20042;-82
2024/01/21 06:16:44;;;;;;;7.37;4.10;;;1.70;56.20;;;;;;5036494;28;20527;-82
2024/01/21 06:19:10;;;;;;;9.17;4.03;;;1.60;56.30;;;;;;5031129;28;20044;-82
2024/01/21 06:21:42;;;;;;;6.40;3.60;;;1.70;56.40;;;;;;5042235;28;20029;-82
2024/01/21 06:24:08;;;;;;;6.93;3.80;;;1.70;56.80;;;;;;5061510;28;20113;-83
2024/01/21 06:26:37;;;;;;;7.03;3.97;;;1.70;57.00;;;;;;5039241;28;20480;-83
2024/01/21 06:29:03;;;;;;;7.47;4.37;;;1.60;57.10;;;;;;5050739;28;20089;-82
2024/01/21 06:31:29;;;;;;;8.90;4.17;;;1.70;57.00;;;;;;5028665;28;20045;-83
2024/01/21 06:33:55;;;;;;;6.17;3.87;;;1.60;56.40;;;;;;5030785;28;20061;-83
2024/01/21 06:36:22;;;;;;;6.97;3.60;;;1.70;56.50;;;;;;5031068;28;20524;-82
2024/01/21 06:38:48;;;;;;;8.80;4.50;;;1.70;57.20;;;;;;5030622;28;20120;-82
2024/01/21 06:41:16;;;;;;;6.93;4.03;;;1.70;57.00;;;;;;5030669;28;20127;-82
2024/01/21 06:43:41;;;;;;;6.10;3.80;;;1.70;57.30;;;;;;5028134;28;20030;-82
2024/01/21 06:46:08;;;;;;;6.63;3.90;;;1.70;57.60;;;;;;5028091;28;20053;-82
2024/01/21 06:48:34;;;;;;;6.07;3.63;;;1.70;57.70;;;;;;5009815;28;20097;-82
2024/01/21 06:51:10;;;;;;;7.80;4.20;;;1.70;57.60;;;;;;5027585;28;20058;-82
2024/01/21 06:53:38;;;;;;;7.43;4.40;;;1.70;57.40;;;;;;5031057;28;20041;-83
2024/01/21 06:56:07;;;;;;;7.10;4.47;;;1.70;57.60;;;;;;5011853;28;20046;-83
2024/01/21 06:58:35;;;;;;;15.07;6.07;;;1.70;57.40;;;;;;5035050;28;20089;-83
2024/01/21 07:01:01;;;;;;;8.03;4.13;;;1.70;57.60;;;;;;5031506;28;20069;-83
2024/01/21 07:03:28;;;;;;;7.00;4.07;;;1.70;57.90;;;;;;5030136;28;20049;-82
2024/01/21 07:05:53;;;;;;;10.83;4.27;;;1.70;57.90;;;;;;5023831;28;20121;-82
2024/01/21 07:08:19;;;;;;;7.43;4.60;;;1.70;58.10;;;;;;5023538;28;20069;-82
2024/01/21 07:10:45;;;;;;;7.43;3.90;;;1.70;58.00;;;;;;5029857;28;20113;-82
2024/01/21 07:13:11;;;;;;;6.77;4.17;;;1.70;58.10;;;;;;5015567;28;20119;-83
2024/01/21 07:15:37;;;;;;;7.20;4.30;;;1.70;57.90;;;;;;5032383;28;20041;-82
2024/01/21 07:18:03;;;;;;;8.67;4.10;;;1.70;58.10;;;;;;5036163;28;20120;-82
2024/01/21 07:20:28;;;;;;;8.10;4.23;;;1.80;58.40;;;;;;5015386;28;20080;-82
2024/01/21 07:22:55;;;;;;;7.00;4.00;;;1.80;58.50;;;;;;5031165;28;20044;-82
2024/01/21 07:25:21;;;;;;;6.43;4.10;;;1.80;58.50;;;;;;5011635;28;20060;-82
2024/01/21 07:27:48;;;;;;;6.03;3.83;;;1.80;58.40;;;;;;5031361;28;20500;-82
2024/01/21 07:30:14;;;;;;;7.03;4.23;;;1.80;58.60;;;;;;5030145;28;20045;-82
2024/01/21 07:32:40;;;;;;;7.00;4.00;;;1.80;58.60;;;;;;5031014;28;20125;-82
2024/01/21 07:35:08;;;;;;;8.80;4.03;;;1.80;58.80;;;;;;4996439;28;20109;-82
2024/01/21 07:37:35;;;;;;;7.60;3.90;;;1.90;58.90;;;;;;5034755;28;20408;-82
2024/01/21 07:40:01;;;;;;;8.37;4.77;;;1.80;59.00;;;;;;5016293;28;20037;-82
2024/01/21 07:42:30;;;;;;;7.90;4.60;;;1.90;59.00;;;;;;5032197;28;20037;-82
2024/01/21 07:44:58;;;;;;;7.63;4.47;;;1.90;58.90;;;;;;5029283;28;20049;-82
2024/01/21 07:47:25;;;;;;;8.20;4.13;;;1.90;59.00;;;;;;5032402;28;20080;-82
2024/01/21 07:49:51;;;;;;;8.50;4.33;;;1.90;58.90;;;;;;5028670;28;20179;-82
2024/01/21 07:52:17;;;;;;;7.73;4.00;;;1.90;59.00;;;;;;5027239;28;20532;-82
2024/01/21 07:54:43;;;;;;;7.10;4.20;;;1.90;59.10;;;;;;5006302;28;20184;-82
2024/01/21 07:57:09;;;;;;;6.17;4.20;;;1.90;58.90;;;;;;5017925;28;20041;-82
2024/01/21 07:59:34;;;;;;;8.90;4.30;;;2.00;58.70;;;;;;5053704;28;20080;-82
2024/01/21 08:02:00;;;;;;;7.27;4.13;;;2.00;58.70;;;;;;5048658;28;20229;-82
2024/01/21 08:04:26;;;;;;;8.50;4.47;;;2.00;58.70;;;;;;5030445;28;20038;-82
2024/01/21 08:06:51;;;;;;;8.37;4.67;;;2.10;59.10;;;;;;5040701;28;20055;-82
2024/01/21 08:09:18;;;;;;;8.90;4.67;;;2.10;59.30;;;;;;5054900;28;20061;-82
2024/01/21 08:11:44;;;;;;;7.23;4.50;;;2.10;59.30;;;;;;5032769;28;20068;-82
2024/01/21 08:14:12;;;;;;;5.97;3.87;;;2.10;59.30;;;;;;5035622;28;20111;-83
2024/01/21 08:16:38;;;;;;;7.03;4.37;;;2.10;59.30;;;;;;5030011;28;20038;-82
2024/01/21 08:19:04;;;;;;;7.27;4.43;;;2.10;59.40;;;;;;5030930;28;20111;-82
2024/01/21 08:21:30;;;;;;;7.93;4.97;;;2.70;59.70;;;;;;5037582;28;20462;-82
2024/01/21 08:23:55;;;;;;;8.13;4.63;;;2.20;59.20;;;;;;5013420;28;20041;-82
2024/01/21 08:26:21;;;;;;;7.47;4.53;;;2.20;59.00;;;;;;5018644;28;20053;-82
2024/01/21 08:28:50;;;;;;;7.77;4.53;;;2.20;59.10;;;;;;5033138;28;20034;-83
2024/01/21 08:31:17;;;;;;;8.90;5.27;;;2.30;59.00;;;;;;5037661;28;20030;-82
2024/01/21 08:33:42;;;;;;;7.57;5.17;;;2.30;59.00;;;;;;5045369;28;20048;-82
2024/01/21 08:36:08;;;;;;;8.27;4.90;;;2.30;59.00;;;;;;5054565;28;20041;-82
2024/01/21 08:38:34;;;;;;;7.50;4.50;;;2.30;58.90;;;;;;5055588;28;20037;-82
2024/01/21 08:41:00;;;;;;;8.37;5.33;;;2.30;59.10;;;;;;5047271;28;20046;-82
2024/01/21 08:43:25;;;;;;;9.10;4.83;;;2.40;59.30;;;;;;5039433;28;20072;-82
2024/01/21 08:45:51;;;;;;;9.43;5.53;;;2.40;59.20;;;;;;5041634;28;20097;-82
2024/01/21 08:48:17;;;;;;;6.87;4.70;;;2.40;59.10;;;;;;5039926;28;20460;-82
2024/01/21 08:50:42;;;;;;;9.07;5.33;;;2.40;59.40;;;;;;5033253;28;20042;-82
2024/01/21 08:53:08;;;;;;;7.97;4.87;;;2.40;59.60;;;;;;5031666;28;20034;-83
2024/01/21 08:55:34;;;;;;;12.43;5.23;;;2.50;59.70;;;;;;5033897;28;20041;-82
2024/01/21 08:58:00;;;;;;;7.43;4.93;;;2.50;59.60;;;;;;5027911;28;20493;-82
2024/01/21 09:00:26;;;;;;;8.33;4.93;;;2.50;59.80;;;;;;5027455;28;20044;-81
2024/01/21 09:02:51;;;;;;;8.60;5.20;;;2.50;59.90;;;;;;5025553;28;20044;-82
2024/01/21 09:05:17;;;;;;;7.50;5.20;;;2.60;60.10;;;;;;5028128;28;20068;-82
2024/01/21 09:07:42;;;;;;;10.03;5.17;;;2.60;60.20;;;;;;5018329;28;20041;-82
2024/01/21 09:10:09;;;;;;;7.40;5.10;;;2.60;60.30;;;;;;5016789;28;20132;-82
2024/01/21 09:12:35;;;;;;;8.00;4.57;;;2.60;60.40;;;;;;5033102;28;20160;-82
2024/01/21 09:15:02;;;;;;;8.47;4.90;;;2.70;60.40;;;;;;5037214;28;20048;-82
2024/01/21 09:17:28;;;;;;;7.47;4.47;;;2.60;60.50;;;;;;5011452;28;20400;-82
2024/01/21 09:19:53;;;;;;;8.70;4.77;;;2.70;60.80;;;;;;5012664;28;20034;-82
2024/01/21 09:22:19;;;;;;;6.63;4.53;;;2.70;60.90;;;;;;5027166;28;20045;-82
2024/01/21 09:24:45;;;;;;;7.57;5.17;;;2.70;61.00;;;;;;5031204;28;20058;-81
2024/01/21 09:27:11;;;;;;;8.67;5.33;;;2.70;61.30;;;;;;5032488;28;20385;-81
2024/01/21 09:29:36;;;;;;;9.53;5.20;;;2.70;61.50;;;;;;5035887;28;20045;-81
2024/01/21 09:32:02;;;;;;;7.83;5.37;;;2.80;61.90;;;;;;5028156;28;20442;-82
2024/01/21 09:34:28;;;;;;;8.07;4.97;;;2.80;62.10;;;;;;5017861;28;20037;-82
2024/01/21 09:36:53;;;;;;;10.20;5.70;;;2.80;62.20;;;;;;5027859;28;20025;-82
2024/01/21 09:39:19;;;;;;;7.83;4.67;;;2.90;62.30;;;;;;5027945;28;20531;-82
2024/01/21 09:41:49;;;;;;;9.13;5.00;;;2.90;62.40;;;;;;5025523;28;20033;-80
2024/01/21 09:44:18;;;;;;;7.47;4.97;;;2.90;62.60;;;;;;5040064;28;20116;-82
2024/01/21 09:46:50;;;;;;;9.90;5.43;;;3.00;62.90;;;;;;5055443;28;20080;-81
2024/01/21 09:49:17;;;;;;;8.90;5.27;;;3.00;63.00;;;;;;5029707;28;20055;-81
2024/01/21 09:51:44;;;;;;;9.57;5.73;;;3.10;63.30;;;;;;5015932;28;20033;-81
2024/01/21 09:54:10;;;;;;;8.55;5.55;;;3.10;63.50;;;;;;5053747;28;20021;-81
2024/01/21 09:56:36;;;;;;;9.40;6.15;;;3.10;63.80;;;;;;5034819;28;20045;-81
2024/01/21 09:59:04;;;;;;;9.00;6.25;;;3.20;64.10;;;;;;5034599;28;20045;-81
2024/01/21 10:01:32;;;;;;;8.45;5.50;;;3.20;64.40;;;;;;5012966;28;20029;-81
2024/01/21 10:03:57;;;;;;;9.10;5.60;;;3.20;64.70;;;;;;5030533;28;20489;-81
2024/01/21 10:06:25;;;;;;;7.78;5.25;;;3.20;64.90;;;;;;5032044;28;20046;-81
2024/01/21 10:08:50;;;;;;;9.00;5.97;;;3.30;65.10;;;;;;5029138;28;20050;-82
2024/01/21 10:11:16;;;;;;;8.75;5.35;;;3.30;65.30;;;;;;5031695;28;20409;-81
2024/01/21 10:13:44;;;;;;;8.65;5.35;;;3.30;65.50;;;;;;5036704;28;20042;-82
2024/01/21 10:16:12;;;;;;;9.35;5.70;;;3.40;65.80;;;;;;5011381;28;20045;-82
2024/01/21 10:18:38;;;;;;;8.93;5.68;;;3.40;66.10;;;;;;5019670;28;20036;-81
2024/01/21 10:21:05;;;;;;;7.82;5.38;;;3.40;66.20;;;;;;5031823;28;20061;-80
2024/01/21 10:23:31;;;;;;;9.52;5.75;;;3.40;66.50;;;;;;5031879;28;20049;-80
2024/01/21 10:25:58;;;;;;;8.98;5.63;;;3.40;67.00;;;;;;5034502;28;20046;-80
2024/01/21 10:28:23;;;;;;;8.75;5.40;;;3.50;67.20;;;;;;5032171;28;20037;-81
2024/01/21 10:30:50;;;;;;;11.70;6.20;;;3.50;67.50;;;;;;5037516;28;20121;-81
2024/01/21 10:33:15;;;;;;;10.15;6.15;;;3.50;67.70;;;;;;5038628;28;20033;-81
2024/01/21 10:35:42;;;;;;;10.02;5.28;;;3.50;68.00;;;;;;5046050;28;20045;-81
2024/01/21 10:38:11;;;;;;;9.00;6.03;;;3.40;67.90;;;;;;5022451;28;20041;-81
2024/01/21 10:40:43;;;;;;;8.75;5.50;;;3.50;68.30;;;;;;5045242;28;20042;-81
2024/01/21 10:43:15;;;;;;;9.50;5.72;;;3.40;68.40;;;;;;5047384;28;20045;-80
2024/01/21 10:45:45;;;;;;;8.85;4.93;;;3.40;68.90;;;;;;5014657;28;20109;-80
2024/01/21 10:48:15;;;;;;;7.80;5.43;;;3.40;69.10;;;;;;5043473;28;20056;-81
2024/01/21 10:50:44;;;;;;;10.10;5.95;;;3.40;69.40;;;;;;5045009;28;20030;-81
2024/01/21 10:53:12;;;;;;;8.32;5.70;;;3.30;69.70;;;;;;5019307;28;20029;-81
2024/01/21 10:55:39;;;;;;;11.43;5.95;;;3.30;70.10;;;;;;5022312;28;20149;-81
2024/01/21 10:58:06;;;;;;;9.25;6.22;;;3.30;70.40;;;;;;5015328;28;20319;-81
2024/01/21 11:00:32;;;;;;;9.75;6.13;;;3.30;70.80;;;;;;5033623;28;20069;-81
2024/01/21 11:03:32;;;;;;;9.25;6.18;;;3.30;71.70;;;;;;5038009;28;20030;-81
2024/01/21 11:06:00;;;;;;;9.98;6.18;;;3.20;72.00;;;;;;4993472;28;20099;-81
2024/01/21 11:08:27;;;;;;;8.57;5.88;;;3.20;72.10;;;;;;5020439;28;20534;-80
2024/01/21 11:11:08;;;;;;;10.30;6.13;;;3.20;72.30;;;;;;5023600;28;20041;-81
2024/01/21 11:13:51;;;;;;;12.30;6.07;;;3.20;72.60;;;;;;5014055;28;20404;-81
2024/01/21 11:16:26;;;;;;;9.10;5.90;;;3.20;72.70;;;;;;5043558;28;20048;-81
2024/01/21 11:18:52;;;;;;;8.07;5.60;;;3.10;72.90;;;;;;5013628;28;20120;-81
2024/01/21 11:21:21;;;;;;;10.07;6.80;;;3.10;73.40;;;;;;5018645;28;20068;-80
2024/01/21 11:24:02;;;;;;;10.40;6.20;;;3.10;74.10;;;;;;5032490;28;20068;-80
2024/01/21 11:26:41;;;;;;;9.75;6.43;;;3.10;74.20;;;;;;5038998;28;20052;-81
2024/01/21 11:29:25;;;;;;;9.40;6.33;;;3.10;74.50;;;;;;5050209;28;20034;-81
2024/01/21 11:31:53;;;;;;;9.95;6.20;;;3.10;74.80;;;;;;5027952;28;20095;-81
2024/01/21 11:34:19;;;;;;;9.20;6.03;;;3.10;74.80;;;;;;5033397;28;20040;-80
2024/01/21 11:36:45;;;;;;;11.10;6.43;;;3.10;75.30;;;;;;5058254;28;20064;-81
2024/01/21 11:39:10;;;;;;;8.52;5.57;;;3.10;75.80;;;;;;5042371;28;20053;-81
2024/01/21 11:41:41;;;;;;;10.70;6.50;;;3.10;76.10;;;;;;5036947;28;20043;-81
2024/01/21 11:44:18;;;;;;;9.93;7.00;;;3.10;76.30;;;;;;5017169;28;20061;-81
2024/01/21 11:46:44;;;;;;;8.48;6.18;;;3.10;76.80;;;;;;5036046;28;20038;-81
2024/01/21 11:49:13;;;;;;;8.70;6.15;;;3.10;76.90;;;;;;5035118;28;20048;-80
2024/01/21 11:51:39;;;;;;;10.95;6.72;;;3.10;77.20;;;;;;5033359;28;20042;-80
2024/01/21 11:54:06;;;;;;;11.20;6.90;;;3.10;77.50;;;;;;5032585;28;20034;-80
2024/01/21 11:56:36;;;;;;;12.48;7.90;;;3.10;77.80;;;;;;5016400;28;20045;-81
2024/01/21 11:59:04;;;;;;;11.05;7.80;;;3.10;78.20;;;;;;5036772;28;20045;-81
2024/01/21 12:01:30;;;;;;;12.45;6.43;;;3.10;78.60;;;;;;5032051;28;20049;-81
2024/01/21 12:03:58;;;;;;;10.45;7.20;;;3.10;79.00;;;;;;5033798;28;20073;-80
2024/01/21 12:06:27;;;;;;;12.27;7.65;;;3.10;79.30;;;;;;5036286;28;20038;-80
2024/01/21 12:08:53;;;;;;;11.23;7.70;;;3.20;79.50;;;;;;5036567;28;20044;-81
2024/01/21 12:11:18;;;;;;;11.32;7.38;;;3.20;80.00;;;;;;5013734;28;20037;-80
2024/01/21 12:13:44;;;;;;;10.63;6.28;;;3.20;80.10;;;;;;5012589;28;20268;-81
2024/01/21 12:16:11;;;;;;;11.20;7.00;;;3.20;80.40;;;;;;5029280;28;20120;-81
2024/01/21 12:18:41;;;;;;;11.63;7.55;;;3.20;80.60;;;;;;5049344;28;20038;-80
2024/01/21 12:21:13;;;;;;;11.57;7.28;;;3.20;80.80;;;;;;5035564;28;20029;-80
2024/01/21 12:23:46;;;;;;;10.55;7.03;;;3.20;81.50;;;;;;5014207;28;20033;-81
2024/01/21 12:26:16;;;;;;;13.37;8.10;;;3.20;81.30;;;;;;5030318;28;20061;-81
2024/01/21 12:28:57;;;;;;;9.98;6.50;;;3.20;81.30;;;;;;5010341;28;20070;-82
2024/01/21 12:31:31;;;;;;;12.48;6.90;;;3.30;81.80;;;;;;5006954;28;20057;-81
2024/01/21 12:34:04;;;;;;;9.13;6.63;;;3.20;81.40;;;;;;5029602;28;20029;-81
2024/01/21 12:36:30;;;;;;;11.52;7.40;;;3.20;81.70;;;;;;5015146;28;20041;-81
2024/01/21 12:38:57;;;;;;;12.50;7.72;;;3.20;82.00;;;;;;5029777;28;20431;-82
2024/01/21 12:41:23;;;;;;;10.40;6.90;;;3.20;82.30;;;;;;5028494;28;20567;-82
2024/01/21 12:43:52;;;;;;;10.85;7.10;;;3.20;82.50;;;;;;5037566;28;20056;-82
2024/01/21 12:46:19;;;;;;;11.30;7.20;;;3.20;82.70;;;;;;5033975;28;20120;-80
2024/01/21 12:48:45;;;;;;;10.45;6.97;;;3.30;82.90;;;;;;5037050;28;20117;-81
2024/01/21 12:51:11;;;;;;;12.15;7.60;;;3.30;83.10;;;;;;5031270;28;20044;-81